Time;durP1;ratioP1;P1;durP2;ratioP2;P2;SDS_P1;SDS_P2;PMS_P1;PMS_P2;Temp;Humidity;BMP_temperature;BMP_pressure;BME280_temperature;BME280_humidity;BME280_pressure;Samples;Min_cycle;Max_cycle;Signal;HPM_P1;HPM_P2
2022/04/13 00:02:04;;;;;;;;;;;;;;;0.13;87.84;100190.34;4974121;28;1882;-55
2022/04/13 00:04:31;;;;;;;;;;;;;;;0.03;88.38;100186.03;4974155;28;917;-55
2022/04/13 00:06:57;;;;;;;;;;;;;;;0.04;88.82;100182.19;4974300;28;1026;-55
2022/04/13 00:09:24;;;;;;;;;;;;;;;0.10;88.75;100180.91;4974520;28;785;-56
2022/04/13 00:11:54;;;;;;;;;;;;;;;0.24;88.55;100188.88;4973990;28;799;-57
2022/04/13 00:14:22;;;;;;;;;;;;;;;0.43;88.13;100187.69;4973657;28;930;-57
2022/04/13 00:16:50;;;;;;;;;;;;;;;0.60;87.04;100174.84;4973541;28;974;-57
2022/04/13 00:19:17;;;;;;;;;;;;;;;0.65;85.79;100175.81;4973523;28;911;-57
2022/04/13 00:21:44;;;;;;;;;;;;;;;0.68;85.35;100180.59;4973561;28;866;-57
2022/04/13 00:24:12;;;;;;;;;;;;;;;0.65;84.86;100173.09;4973516;28;1882;-57
2022/04/13 00:26:38;;;;;;;;;;;;;;;0.61;85.06;100179.16;4973189;28;1283;-57
2022/04/13 00:29:06;;;;;;;;;;;;;;;0.56;84.80;100184.78;4956038;28;788;-57
2022/04/13 00:31:32;;;;;;;;;;;;;;;0.46;84.92;100181.63;4973496;28;807;-57
2022/04/13 00:33:59;;;;;;;;;;;;;;;0.32;85.38;100177.19;4973357;28;847;-57
2022/04/13 00:36:25;;;;;;;;;;;;;;;0.06;85.59;100174.50;4973355;28;819;-57
2022/04/13 00:38:52;;;;;;;;;;;;;;;-0.20;86.26;100177.28;4973566;28;875;-57
2022/04/13 00:41:21;;;;;;;;;;;;;;;-0.35;87.39;100172.34;4973167;28;862;-57
2022/04/13 00:44:08;;;;;;;;;;;;;;;-0.38;88.26;100176.50;4973204;28;1914;-57
2022/04/13 00:46:35;;;;;;;;;;;;;;;-0.36;88.78;100170.72;4972916;28;1305;-57
2022/04/13 00:49:02;;;;;;;;;;;;;;;-0.39;88.69;100166.72;4973117;28;811;-57
2022/04/13 00:51:29;;;;;;;;;;;;;;;-0.50;89.44;100165.47;4972514;28;815;-57
2022/04/13 00:53:59;;;;;;;;;;;;;;;-0.41;89.91;100171.69;4973068;28;796;-57
2022/04/13 00:56:28;;;;;;;;;;;;;;;-0.01;89.84;100163.34;4973006;28;843;-57
2022/04/13 00:59:10;;;;;;;;;;;;;;;0.32;88.48;100162.78;4973055;28;819;-57
2022/04/13 01:01:47;;;;;;;;;;;;;;;0.61;87.16;100149.22;4972925;28;824;-57
2022/04/13 01:04:14;;;;;;;;;;;;;;;0.52;85.49;100155.84;4972756;28;1894;-57
2022/04/13 01:06:41;;;;;;;;;;;;;;;0.11;85.37;100162.69;4972904;28;873;-57
2022/04/13 01:09:08;;;;;;;;;;;;;;;-0.28;86.44;100159.06;4972815;28;823;-57
2022/04/13 01:11:34;;;;;;;;;;;;;;;-0.50;87.66;100155.38;4972901;28;887;-57
2022/04/13 01:14:01;;;;;;;;;;;;;;;-0.63;88.09;100159.84;4972845;28;807;-57
2022/04/13 01:16:28;;;;;;;;;;;;;;;-0.66;88.80;100157.78;4972768;28;913;-57
2022/04/13 01:18:55;;;;;;;;;;;;;;;-0.68;89.24;100161.94;4955408;28;1221;-57
2022/04/13 01:21:41;;;;;;;;;;;;;;;-0.64;89.61;100154.75;4972808;28;831;-57
2022/04/13 01:24:09;;;;;;;;;;;;;;;-0.57;89.19;100151.56;4972600;28;1890;-57
2022/04/13 01:26:35;;;;;;;;;;;;;;;-0.61;89.16;100145.97;4972529;28;1505;-57
2022/04/13 01:29:02;;;;;;;;;;;;;;;-0.65;89.17;100142.28;4972667;28;902;-57
2022/04/13 01:31:29;;;;;;;;;;;;;;;-0.71;89.16;100149.78;4972739;28;847;-57
2022/04/13 01:33:59;;;;;;;;;;;;;;;-0.84;89.19;100139.88;4972636;28;835;-57
2022/04/13 01:36:26;;;;;;;;;;;;;;;-0.97;89.11;100140.81;4972660;28;846;-57
2022/04/13 01:38:52;;;;;;;;;;;;;;;-1.17;89.15;100139.50;4972756;28;878;-57
2022/04/13 01:41:19;;;;;;;;;;;;;;;-1.37;89.82;100140.88;4972873;28;812;-57
2022/04/13 01:43:45;;;;;;;;;;;;;;;-1.41;91.17;100137.97;4972466;28;1919;-57
2022/04/13 01:46:12;;;;;;;;;;;;;;;-1.28;91.77;100147.13;4972554;28;820;-58
2022/04/13 01:48:38;;;;;;;;;;;;;;;-1.12;91.89;100150.22;4972662;28;803;-57
2022/04/13 01:51:05;;;;;;;;;;;;;;;-0.91;91.85;100147.69;4972513;28;851;-57
2022/04/13 01:53:32;;;;;;;;;;;;;;;-0.82;91.30;100151.22;4972486;28;857;-57
2022/04/13 01:55:59;;;;;;;;;;;;;;;-0.80;91.06;100145.47;4972364;28;914;-57
2022/04/13 01:58:25;;;;;;;;;;;;;;;-0.70;91.21;100145.97;4972366;28;824;-57
2022/04/13 02:00:53;;;;;;;;;;;;;;;-0.54;91.04;100154.44;4972430;28;816;-57
2022/04/13 02:03:21;;;;;;;;;;;;;;;-0.42;90.38;100142.94;4974774;28;1894;-57
2022/04/13 02:05:48;;;;;;;;;;;;;;;-0.27;90.29;100142.44;4975997;28;911;-57
2022/04/13 02:08:15;;;;;;;;;;;;;;;-0.05;89.76;100143.38;4976215;28;882;-57
2022/04/13 02:10:41;;;;;;;;;;;;;;;0.03;89.35;100141.78;4958777;28;906;-57
2022/04/13 02:13:08;;;;;;;;;;;;;;;0.17;88.99;100139.63;4976096;28;831;-57
2022/04/13 02:15:34;;;;;;;;;;;;;;;0.38;88.13;100131.56;4975864;28;890;-57
2022/04/13 02:18:01;;;;;;;;;;;;;;;0.45;86.83;100137.31;4975849;28;918;-57
2022/04/13 02:20:28;;;;;;;;;;;;;;;0.56;86.41;100135.03;4975903;28;862;-57
2022/04/13 02:22:54;;;;;;;;;;;;;;;0.67;85.17;100138.97;4975557;28;1886;-57
2022/04/13 02:25:21;;;;;;;;;;;;;;;0.75;84.79;100148.22;4960920;28;1390;-57
2022/04/13 02:27:48;;;;;;;;;;;;;;;0.84;84.27;100134.59;4975859;28;811;-57
2022/04/13 02:30:15;;;;;;;;;;;;;;;0.95;83.48;100128.41;4975640;28;859;-57
2022/04/13 02:32:45;;;;;;;;;;;;;;;1.03;83.03;100129.50;4975549;28;930;-57
2022/04/13 02:35:13;;;;;;;;;;;;;;;1.11;82.61;100128.66;4975432;28;950;-57
2022/04/13 02:37:40;;;;;;;;;;;;;;;1.10;82.39;100126.25;4975401;28;894;-57
2022/04/13 02:40:07;;;;;;;;;;;;;;;1.07;82.45;100119.53;4975401;28;866;-57
2022/04/13 02:42:34;;;;;;;;;;;;;;;1.00;83.05;100119.25;4975573;28;1918;-56
2022/04/13 02:45:01;;;;;;;;;;;;;;;0.88;82.72;100121.91;4975329;28;884;-57
2022/04/13 02:47:28;;;;;;;;;;;;;;;0.79;83.91;100122.75;4975404;28;835;-56
2022/04/13 02:49:55;;;;;;;;;;;;;;;0.80;83.92;100118.09;4975234;28;1152;-55
2022/04/13 02:52:23;;;;;;;;;;;;;;;0.84;84.41;100121.75;4975366;28;848;-55
2022/04/13 02:54:50;;;;;;;;;;;;;;;1.04;84.07;100122.91;4975113;28;951;-55
2022/04/13 02:57:16;;;;;;;;;;;;;;;1.30;82.70;100130.09;4975189;28;816;-56
2022/04/13 02:59:46;;;;;;;;;;;;;;;1.46;81.63;100124.88;4975384;28;853;-57
2022/04/13 03:02:16;;;;;;;;;;;;;;;1.54;80.93;100127.50;4974980;28;1994;-57
2022/04/13 03:04:43;;;;;;;;;;;;;;;1.48;81.38;100128.84;4975098;28;872;-56
2022/04/13 03:07:11;;;;;;;;;;;;;;;1.46;80.56;100122.16;4974869;28;851;-55
2022/04/13 03:09:38;;;;;;;;;;;;;;;1.54;79.83;100124.78;4974976;28;866;-57
2022/04/13 03:12:06;;;;;;;;;;;;;;;1.60;79.86;100126.19;4973635;28;1702;-57
2022/04/13 03:14:32;;;;;;;;;;;;;;;1.65;79.64;100125.19;4975131;28;791;-56
2022/04/13 03:16:59;;;;;;;;;;;;;;;1.63;79.92;100122.78;4974830;28;855;-56
2022/04/13 03:19:26;;;;;;;;;;;;;;;1.62;79.58;100123.09;4974864;28;887;-56
2022/04/13 03:21:54;;;;;;;;;;;;;;;1.75;78.36;100116.59;4974718;28;878;-56
2022/04/13 03:24:24;;;;;;;;;;;;;;;1.98;76.83;100113.47;4975144;28;1946;-56
2022/04/13 03:26:51;;;;;;;;;;;;;;;2.21;76.71;100125.56;4941138;28;1282;-56
2022/04/13 03:29:18;;;;;;;;;;;;;;;2.22;76.69;100121.72;4955178;29;871;-55
2022/04/13 03:31:46;;;;;;;;;;;;;;;2.21;76.51;100122.84;4955352;29;839;-56
2022/04/13 03:34:13;;;;;;;;;;;;;;;2.17;77.08;100121.91;4955079;29;879;-55
2022/04/13 03:36:40;;;;;;;;;;;;;;;2.01;77.44;100121.00;4954968;29;867;-56
2022/04/13 03:39:08;;;;;;;;;;;;;;;1.92;77.59;100123.81;4955050;29;910;-55
2022/04/13 03:41:35;;;;;;;;;;;;;;;1.87;78.01;100125.94;4955354;29;899;-58
2022/04/13 03:44:03;;;;;;;;;;;;;;;1.94;77.23;100123.44;4954930;29;1906;-57
2022/04/13 03:46:30;;;;;;;;;;;;;;;2.04;77.61;100128.47;4954974;29;883;-57
2022/04/13 03:48:57;;;;;;;;;;;;;;;2.10;77.09;100132.59;4954901;29;1193;-57
2022/04/13 03:51:23;;;;;;;;;;;;;;;2.09;77.48;100138.38;4954881;29;918;-57
2022/04/13 03:53:50;;;;;;;;;;;;;;;2.11;77.22;100133.38;4954749;29;1026;-57
2022/04/13 03:56:17;;;;;;;;;;;;;;;2.11;77.05;100128.72;4954772;29;807;-57
2022/04/13 03:58:43;;;;;;;;;;;;;;;2.09;77.52;100135.66;4954774;29;883;-57
2022/04/13 04:01:10;;;;;;;;;;;;;;;1.98;78.03;100138.00;4954636;29;792;-57
2022/04/13 04:03:37;;;;;;;;;;;;;;;1.75;77.49;100146.56;4954624;29;1886;-57
2022/04/13 04:06:04;;;;;;;;;;;;;;;1.49;79.17;100137.81;4954491;29;847;-57
2022/04/13 04:08:32;;;;;;;;;;;;;;;1.32;80.34;100141.47;4921526;29;1222;-57
2022/04/13 04:10:58;;;;;;;;;;;;;;;1.29;80.63;100144.84;4954337;29;919;-57
2022/04/13 04:13:25;;;;;;;;;;;;;;;1.54;80.83;100148.53;4954516;29;824;-57
2022/04/13 04:15:52;;;;;;;;;;;;;;;2.04;78.54;100150.28;4954624;29;815;-57
2022/04/13 04:18:18;;;;;;;;;;;;;;;2.25;78.10;100148.31;4937137;29;874;-57
2022/04/13 04:20:44;;;;;;;;;;;;;;;2.32;77.37;100146.94;4954659;29;882;-57
2022/04/13 04:23:11;;;;;;;;;;;;;;;2.34;76.91;100147.41;4954436;29;1922;-57
2022/04/13 04:25:38;;;;;;;;;;;;;;;2.51;75.73;100155.38;4961391;28;1211;-57
2022/04/13 04:28:06;;;;;;;;;;;;;;;2.62;75.91;100147.56;4973744;28;1024;-56
2022/04/13 04:30:33;;;;;;;;;;;;;;;2.72;74.89;100155.28;4973435;28;902;-56
2022/04/13 04:32:59;;;;;;;;;;;;;;;2.82;75.09;100159.53;4973367;28;864;-57
2022/04/13 04:35:26;;;;;;;;;;;;;;;2.88;75.43;100165.53;4973515;28;906;-57
2022/04/13 04:37:53;;;;;;;;;;;;;;;2.85;74.25;100165.06;4973444;28;820;-57
2022/04/13 04:40:19;;;;;;;;;;;;;;;2.82;73.86;100173.97;4973430;28;850;-57
2022/04/13 04:42:49;;;;;;;;;;;;;;;2.85;74.65;100176.00;4973488;28;1914;-57
2022/04/13 04:45:19;;;;;;;;;;;;;;;2.89;74.63;100167.94;4973294;28;803;-57
2022/04/13 04:47:47;;;;;;;;;;;;;;;2.98;74.45;100174.06;4973453;28;847;-57
2022/04/13 04:50:14;;;;;;;;;;;;;;;3.13;73.67;100183.50;4973069;28;923;-57
2022/04/13 04:52:44;;;;;;;;;;;;;;;3.25;73.65;100186.22;4973114;28;859;-55
2022/04/13 04:55:11;;;;;;;;;;;;;;;3.53;74.29;100193.69;4973102;28;815;-57
2022/04/13 04:57:38;;;;;;;;;;;;;;;3.88;72.92;100199.41;4973044;28;816;-57
2022/04/13 05:00:06;;;;;;;;;;;;;;;4.26;71.98;100205.50;4955809;28;939;-57
2022/04/13 05:02:31;;;;;;;;;;;;;;;4.45;70.49;100210.31;4972749;28;1890;-55
2022/04/13 05:04:58;;;;;;;;;;;;;;;4.57;69.81;100210.22;4973029;28;822;-57
2022/04/13 05:07:24;;;;;;;;;;;;;;;4.58;68.96;100220.03;4972862;28;898;-57
2022/04/13 05:09:51;;;;;;;;;;;;;;;4.56;70.07;100211.38;4972861;28;926;-57
2022/04/13 05:12:18;;;;;;;;;;;;;;;4.64;69.45;100213.16;4972951;28;819;-55
2022/04/13 05:14:44;;;;;;;;;;;;;;;4.69;69.14;100210.16;4972764;28;1059;-57
2022/04/13 05:17:10;;;;;;;;;;;;;;;4.73;69.81;100214.91;4972831;28;875;-57
2022/04/13 05:19:37;;;;;;;;;;;;;;;4.78;68.56;100218.19;4972906;28;847;-57
2022/04/13 05:22:04;;;;;;;;;;;;;;;4.82;68.93;100215.53;4972797;28;842;-57
2022/04/13 05:24:31;;;;;;;;;;;;;;;4.92;69.05;100209.53;4972827;28;1906;-57
2022/04/13 05:26:57;;;;;;;;;;;;;;;5.00;68.13;100218.72;4972599;28;1448;-57
2022/04/13 05:29:24;;;;;;;;;;;;;;;5.17;67.10;100220.31;4972765;28;811;-57
2022/04/13 05:31:50;;;;;;;;;;;;;;;5.50;66.63;100200.69;4972671;28;853;-57
2022/04/13 05:34:17;;;;;;;;;;;;;;;6.05;60.10;100209.69;4972702;28;882;-57
2022/04/13 05:36:44;;;;;;;;;;;;;;;6.84;57.41;100202.09;4972603;28;903;-57
2022/04/13 05:39:11;;;;;;;;;;;;;;;7.29;55.29;100211.44;4976588;28;804;-57
2022/04/13 05:41:38;;;;;;;;;;;;;;;7.44;54.41;100204.97;4976616;28;890;-57
2022/04/13 05:44:04;;;;;;;;;;;;;;;7.51;53.47;100199.59;4976315;28;1914;-56
2022/04/13 05:46:33;;;;;;;;;;;;;;;7.66;54.06;100197.81;4976429;28;913;-57
2022/04/13 05:49:02;;;;;;;;;;;;;;;8.44;53.37;100199.13;4976373;28;831;-57
2022/04/13 05:51:29;;;;;;;;;;;;;;;8.61;51.48;100204.03;4976264;28;962;-58
2022/04/13 05:53:55;;;;;;;;;;;;;;;9.02;50.30;100203.19;4976245;28;922;-56
2022/04/13 05:56:22;;;;;;;;;;;;;;;9.46;49.86;100202.31;4976350;28;812;-57
2022/04/13 05:58:48;;;;;;;;;;;;;;;9.33;48.99;100199.09;4958792;28;898;-58
2022/04/13 06:01:15;;;;;;;;;;;;;;;9.13;50.62;100196.59;4976417;28;820;-58
2022/04/13 06:03:42;;;;;;;;;;;;;;;10.02;47.54;100190.72;4976102;28;1967;-57
2022/04/13 06:06:09;;;;;;;;;;;;;;;10.39;47.67;100197.19;4975940;28;843;-58
2022/04/13 06:08:36;;;;;;;;;;;;;;;10.76;46.63;100199.63;4976107;28;863;-58
2022/04/13 06:11:03;;;;;;;;;;;;;;;10.19;47.62;100216.06;4976096;28;812;-57
2022/04/13 06:13:31;;;;;;;;;;;;;;;10.20;47.00;100223.19;4975981;28;882;-57
2022/04/13 06:15:57;;;;;;;;;;;;;;;10.48;47.19;100235.53;4975822;28;954;-57
2022/04/13 06:18:24;;;;;;;;;;;;;;;11.90;43.88;100244.94;4975922;28;871;-57
2022/04/13 06:20:50;;;;;;;;;;;;;;;12.21;41.90;100226.63;4975772;28;784;-57
2022/04/13 06:23:18;;;;;;;;;;;;;;;12.17;43.43;100233.38;4975870;28;1886;-57
2022/04/13 06:25:44;;;;;;;;;;;;;;;12.85;42.20;100238.53;4975374;28;1613;-57
2022/04/13 06:28:11;;;;;;;;;;;;;;;13.32;39.28;100240.97;4962666;28;1188;-57
2022/04/13 06:30:38;;;;;;;;;;;;;;;13.07;39.74;100237.16;4956380;29;859;-57
2022/04/13 06:33:04;;;;;;;;;;;;;;;13.52;39.87;100235.59;4956294;29;832;-55
2022/04/13 06:35:31;;;;;;;;;;;;;;;14.16;38.58;100232.09;4956154;29;796;-57
2022/04/13 06:37:58;;;;;;;;;;;;;;;14.50;37.77;100240.38;4956240;29;812;-58
2022/04/13 06:40:24;;;;;;;;;;;;;;;14.56;36.74;100239.94;4956192;29;808;-57
2022/04/13 06:42:51;;;;;;;;;;;;;;;14.26;36.06;100235.94;4956267;29;1964;-57
2022/04/13 06:45:18;;;;;;;;;;;;;;;14.58;37.17;100235.53;4956162;29;812;-57
2022/04/13 06:47:47;;;;;;;;;;;;;;;15.33;36.87;100227.97;4956193;29;812;-57
2022/04/13 06:50:14;;;;;;;;;;;;;;;15.40;35.14;100229.84;4954827;28;883;-57
2022/04/13 06:52:42;;;;;;;;;;;;;;;15.55;35.81;100235.94;4955989;29;867;-57
2022/04/13 06:55:12;;;;;;;;;;;;;;;15.86;33.76;100231.03;4955944;29;883;-58
2022/04/13 06:57:38;;;;;;;;;;;;;;;15.95;34.24;100239.59;4955908;29;914;-57
2022/04/13 07:00:07;;;;;;;;;;;;;;;15.75;35.26;100241.59;4955841;29;823;-58
2022/04/13 07:02:34;;;;;;;;;;;;;;;16.00;35.76;100238.28;4955736;29;1884;-58
2022/04/13 07:05:01;;;;;;;;;;;;;;;15.17;35.24;100245.38;4955544;29;909;-57
2022/04/13 07:07:26;;;;;;;;;;;;;;;14.38;35.60;100248.50;4955730;29;898;-57
2022/04/13 07:09:53;;;;;;;;;;;;;;;14.35;36.99;100252.91;4955632;29;851;-57
2022/04/13 07:12:20;;;;;;;;;;;;;;;14.53;35.63;100257.44;4955672;29;871;-58
2022/04/13 07:14:47;;;;;;;;;;;;;;;15.20;35.77;100250.06;4955466;29;922;-57
2022/04/13 07:17:14;;;;;;;;;;;;;;;15.58;33.94;100244.25;4955519;29;792;-57
2022/04/13 07:19:40;;;;;;;;;;;;;;;15.82;34.00;100256.16;4955378;29;922;-58
2022/04/13 07:22:07;;;;;;;;;;;;;;;15.64;34.46;100248.13;4955404;29;895;-57
2022/04/13 07:24:34;;;;;;;;;;;;;;;15.40;34.45;100249.34;4955400;29;1891;-57
2022/04/13 07:27:01;;;;;;;;;;;;;;;16.06;33.12;100256.09;4955579;28;1243;-58
2022/04/13 07:29:28;;;;;;;;;;;;;;;16.30;32.21;100251.22;4974671;28;815;-58
2022/04/13 07:31:54;;;;;;;;;;;;;;;16.53;32.28;100253.88;4974444;28;894;-57
2022/04/13 07:34:20;;;;;;;;;;;;;;;16.87;32.31;100244.38;4974628;28;811;-57
2022/04/13 07:36:47;;;;;;;;;;;;;;;16.86;30.98;100248.41;4974415;28;879;-58
2022/04/13 07:39:14;;;;;;;;;;;;;;;16.65;31.00;100249.66;4974620;28;969;-58
2022/04/13 07:41:40;;;;;;;;;;;;;;;17.19;31.02;100253.22;4974517;28;864;-58
2022/04/13 07:44:07;;;;;;;;;;;;;;;17.48;30.38;100258.88;4974314;28;1918;-57
2022/04/13 07:46:34;;;;;;;;;;;;;;;16.73;31.43;100256.66;4974287;28;918;-58
2022/04/13 07:49:00;;;;;;;;;;;;;;;16.24;31.84;100255.75;4974261;28;824;-58
2022/04/13 07:51:26;;;;;;;;;;;;;;;16.32;32.01;100257.94;4956899;28;867;-58
2022/04/13 07:53:53;;;;;;;;;;;;;;;17.12;31.30;100243.78;4974342;28;898;-58
2022/04/13 07:56:19;;;;;;;;;;;;;;;16.43;30.06;100249.34;4974351;28;811;-58
2022/04/13 07:58:46;;;;;;;;;;;;;;;16.22;33.25;100247.03;4974332;28;836;-58
2022/04/13 08:01:14;;;;;;;;;;;;;;;16.87;32.39;100249.19;4974053;28;867;-58
2022/04/13 08:03:41;;;;;;;;;;;;;;;17.30;30.67;100248.13;4973875;28;1914;-58
2022/04/13 08:06:07;;;;;;;;;;;;;;;17.72;31.10;100251.81;4974150;28;1035;-58
2022/04/13 08:08:36;;;;;;;;;;;;;;;18.61;28.87;100244.13;4973736;28;1090;-58
2022/04/13 08:11:03;;;;;;;;;;;;;;;19.37;27.42;100237.66;4973806;28;836;-57
2022/04/13 08:13:29;;;;;;;;;;;;;;;19.79;27.21;100243.03;4973869;28;879;-58
2022/04/13 08:15:56;;;;;;;;;;;;;;;19.65;26.79;100226.69;4973916;28;808;-58
2022/04/13 08:18:22;;;;;;;;;;;;;;;19.51;26.58;100228.75;4974147;28;879;-58
2022/04/13 08:20:49;;;;;;;;;;;;;;;19.83;27.16;100234.50;4973889;28;905;-58
2022/04/13 08:23:16;;;;;;;;;;;;;;;19.54;27.81;100233.47;4973660;28;1914;-58
2022/04/13 08:25:43;;;;;;;;;;;;;;;19.09;28.66;100236.59;4974176;28;963;-58
2022/04/13 08:28:09;;;;;;;;;;;;;;;19.26;29.08;100232.41;4973668;28;1476;-58
2022/04/13 08:30:35;;;;;;;;;;;;;;;18.74;28.30;100236.50;4956476;28;721;-57
2022/04/13 08:33:02;;;;;;;;;;;;;;;18.36;28.26;100226.84;4973285;28;1130;-57
2022/04/13 08:35:28;;;;;;;;;;;;;;;18.38;29.16;100225.63;4973254;28;933;-57
2022/04/13 08:37:55;;;;;;;;;;;;;;;18.43;28.09;100223.03;4973380;28;867;-57
2022/04/13 08:40:22;;;;;;;;;;;;;;;18.22;26.70;100218.91;4973354;28;823;-57
2022/04/13 08:43:03;;;;;;;;;;;;;;;18.22;27.27;100229.28;4973155;28;1973;-57
2022/04/13 08:45:34;;;;;;;;;;;;;;;18.82;28.59;100228.66;4973211;28;1052;-57
2022/04/13 08:48:02;;;;;;;;;;;;;;;19.23;29.95;100208.13;4956032;28;891;-57
2022/04/13 08:50:30;;;;;;;;;;;;;;;19.15;31.41;100201.97;4955977;28;906;-57
2022/04/13 08:52:58;;;;;;;;;;;;;;;18.50;29.00;100208.06;4973045;28;815;-57
2022/04/13 08:55:26;;;;;;;;;;;;;;;18.11;30.26;100199.59;4973049;28;849;-57
2022/04/13 08:58:07;;;;;;;;;;;;;;;17.93;29.80;100202.16;4973011;28;914;-57
2022/04/13 09:00:34;;;;;;;;;;;;;;;18.17;29.54;100195.03;4955757;28;906;-57
2022/04/13 09:03:10;;;;;;;;;;;;;;;18.87;28.48;100198.09;4972883;28;1883;-57
2022/04/13 09:05:39;;;;;;;;;;;;;;;18.87;28.64;100202.91;4973238;28;799;-57
2022/04/13 09:08:07;;;;;;;;;;;;;;;18.45;27.81;100200.97;4972899;28;810;-57
2022/04/13 09:10:34;;;;;;;;;;;;;;;18.15;27.79;100189.09;4972773;28;918;-57
2022/04/13 09:13:01;;;;;;;;;;;;;;;18.20;28.73;100184.19;4955123;28;891;-57
2022/04/13 09:15:28;;;;;;;;;;;;;;;18.15;29.04;100180.69;4955621;28;815;-57
2022/04/13 09:17:55;;;;;;;;;;;;;;;17.56;28.92;100176.41;4972886;28;867;-57
2022/04/13 09:20:22;;;;;;;;;;;;;;;17.03;29.84;100170.25;4972889;28;807;-57
2022/04/13 09:22:49;;;;;;;;;;;;;;;16.70;31.31;100170.97;4972779;28;1907;-57
2022/04/13 09:25:19;;;;;;;;;;;;;;;16.59;29.66;100173.25;4973091;28;1044;-57
2022/04/13 09:27:45;;;;;;;;;;;;;;;15.96;30.27;100171.47;4972568;28;1237;-57
2022/04/13 09:30:13;;;;;;;;;;;;;;;15.52;30.06;100168.72;4972726;28;910;-57
2022/04/13 09:32:40;;;;;;;;;;;;;;;15.76;31.17;100168.69;4972520;28;1059;-57
2022/04/13 09:35:08;;;;;;;;;;;;;;;15.68;30.09;100173.59;4972543;28;848;-57
2022/04/13 09:37:35;;;;;;;;;;;;;;;15.31;30.46;100166.34;4972599;28;864;-57
2022/04/13 09:40:02;;;;;;;;;;;;;;;15.08;32.18;100161.59;4972642;28;894;-57
2022/04/13 09:42:29;;;;;;;;;;;;;;;15.32;31.80;100156.78;4972523;28;1963;-57
2022/04/13 09:44:56;;;;;;;;;;;;;;;15.55;32.97;100152.38;4972601;28;815;-57
2022/04/13 09:47:28;;;;;;;;;;;;;;;15.32;34.30;100151.22;4972746;28;874;-57
2022/04/13 09:49:56;;;;;;;;;;;;;;;15.24;34.33;100158.91;4972514;28;855;-57
2022/04/13 09:52:41;;;;;;;;;;;;;;;15.44;33.53;100147.78;4972472;28;868;-57
2022/04/13 09:55:09;;;;;;;;;;;;;;;15.46;33.31;100155.72;4972344;28;930;-57
2022/04/13 10:26:11;;;;;;;;;;;;;;;17.17;32.47;100133.53;5216995;23;1533;-57
2022/04/13 10:28:47;;;;;;;;;;;;;;;17.55;29.83;100132.91;4995229;28;819;-55
2022/04/13 10:31:14;;;;;;;;;;;;;;;17.13;29.97;100132.84;4995536;28;1020;-55
2022/04/13 10:33:50;;;;;;;;;;;;;;;16.77;30.79;100130.97;4995422;28;815;-55
2022/04/13 10:36:17;;;;;;;;;;;;;;;16.33;31.24;100128.41;4994997;28;921;-55
2022/04/13 10:38:47;;;;;;;;;;;;;;;15.64;32.55;100128.31;4994909;28;887;-55
2022/04/13 10:41:20;;;;;;;;;;;;;;;15.41;31.55;100133.97;4994847;28;847;-56
2022/04/13 10:43:52;;;;;;;;;;;;;;;15.90;31.36;100132.16;4994732;28;1963;-56
2022/04/13 10:46:20;;;;;;;;;;;;;;;16.54;29.40;100121.53;4994723;28;862;-55
2022/04/13 10:48:51;;;;;;;;;;;;;;;16.66;28.86;100122.88;4995123;28;807;-56
2022/04/13 10:51:23;;;;;;;;;;;;;;;17.15;28.52;100119.22;4977786;28;804;-56
2022/04/13 10:54:06;;;;;;;;;;;;;;;17.60;29.88;100121.16;4994716;28;826;-56
2022/04/13 10:56:34;;;;;;;;;;;;;;;18.06;28.71;100113.47;4994673;28;791;-55
2022/04/13 10:59:18;;;;;;;;;;;;;;;18.55;28.16;100110.31;4994663;28;850;-55
2022/04/13 11:01:46;;;;;;;;;;;;;;;18.03;28.39;100117.16;4994589;28;792;-55
2022/04/13 11:04:13;;;;;;;;;;;;;;;17.89;25.75;100112.00;4994514;28;1886;-56
2022/04/13 11:06:40;;;;;;;;;;;;;;;18.16;27.87;100103.19;4994750;28;866;-56
2022/04/13 11:09:15;;;;;;;;;;;;;;;18.27;28.96;100117.63;4994350;28;870;-56
2022/04/13 11:11:41;;;;;;;;;;;;;;;17.90;26.85;100110.75;4994286;28;950;-56
2022/04/13 11:14:18;;;;;;;;;;;;;;;18.27;27.13;100098.03;4994225;28;940;-56
2022/04/13 11:16:45;;;;;;;;;;;;;;;18.32;26.96;100094.66;4994577;28;799;-56
2022/04/13 11:19:12;;;;;;;;;;;;;;;17.86;28.39;100096.91;4994626;28;886;-55
2022/04/13 11:21:50;;;;;;;;;;;;;;;17.82;25.23;100089.81;4994228;28;896;-56
2022/04/13 11:24:33;;;;;;;;;;;;;;;17.33;25.71;100096.41;4994144;28;1886;-56
2022/04/13 11:27:00;;;;;;;;;;;;;;;16.98;25.60;100087.00;4993930;28;1279;-56
2022/04/13 11:29:35;;;;;;;;;;;;;;;17.12;28.04;100076.22;4994112;28;948;-56
2022/04/13 11:32:04;;;;;;;;;;;;;;;17.95;28.73;100068.28;4993970;28;867;-56
2022/04/13 11:34:38;;;;;;;;;;;;;;;18.30;25.74;100076.75;4993591;28;918;-56
2022/04/13 11:37:07;;;;;;;;;;;;;;;17.46;24.70;100076.91;4993804;28;883;-56
2022/04/13 11:39:46;;;;;;;;;;;;;;;16.60;26.09;100070.78;4993777;28;927;-56
2022/04/13 11:42:17;;;;;;;;;;;;;;;16.74;25.63;100074.00;4976375;28;830;-58
2022/04/13 11:44:49;;;;;;;;;;;;;;;16.74;27.49;100070.44;4993897;28;1914;-58
2022/04/13 11:47:17;;;;;;;;;;;;;;;16.85;24.99;100067.38;4993767;28;927;-58
2022/04/13 11:50:02;;;;;;;;;;;;;;;16.59;24.90;100060.84;4993682;28;803;-58
2022/04/13 11:52:41;;;;;;;;;;;;;;;16.62;26.60;100059.97;4993626;28;1033;-58
2022/04/13 11:55:17;;;;;;;;;;;;;;;16.90;25.99;100050.13;4976058;28;875;-58
2022/04/13 11:58:02;;;;;;;;;;;;;;;17.28;26.52;100044.66;4993409;28;926;-58
2022/04/13 12:00:43;;;;;;;;;;;;;;;16.74;23.71;100057.25;4993674;28;859;-58
2022/04/13 12:03:11;;;;;;;;;;;;;;;16.74;24.60;100051.66;4993197;28;1886;-58
2022/04/13 12:05:39;;;;;;;;;;;;;;;17.10;24.75;100061.91;4993377;28;799;-59
2022/04/13 12:08:12;;;;;;;;;;;;;;;17.07;24.57;100050.81;4993433;28;932;-58
2022/04/13 12:10:44;;;;;;;;;;;;;;;17.75;27.50;100049.66;4993361;28;884;-56
2022/04/13 12:13:11;;;;;;;;;;;;;;;17.94;25.44;100050.72;4993127;28;954;-56
2022/04/13 12:15:55;;;;;;;;;;;;;;;17.82;25.25;100047.88;4993254;28;794;-56
2022/04/13 12:18:23;;;;;;;;;;;;;;;18.01;26.53;100048.91;4993221;28;902;-56
2022/04/13 12:20:50;;;;;;;;;;;;;;;18.51;25.44;100047.28;4993149;28;854;-56
2022/04/13 12:23:35;;;;;;;;;;;;;;;18.87;26.63;100037.69;4992878;28;1910;-56
2022/04/13 12:26:02;;;;;;;;;;;;;;;19.32;27.64;100037.25;4993145;28;1193;-56
2022/04/13 12:28:29;;;;;;;;;;;;;;;18.93;25.15;100041.47;4993371;28;1047;-56
2022/04/13 12:30:58;;;;;;;;;;;;;;;18.31;24.87;100036.38;4993030;28;884;-56
2022/04/13 12:33:26;;;;;;;;;;;;;;;17.83;26.78;100041.84;4992964;28;989;-56
2022/04/13 12:35:54;;;;;;;;;;;;;;;17.72;27.31;100049.78;4992701;28;908;-56
2022/04/13 12:38:22;;;;;;;;;;;;;;;18.05;26.64;100027.19;4992980;28;929;-56
2022/04/13 12:40:48;;;;;;;;;;;;;;;17.94;25.08;100031.16;4992765;28;827;-56
2022/04/13 12:43:28;;;;;;;;;;;;;;;18.27;24.85;100016.88;4992554;28;1914;-56
2022/04/13 12:45:55;;;;;;;;;;;;;;;18.10;25.67;100021.84;4992584;28;831;-56
2022/04/13 12:48:27;;;;;;;;;;;;;;;18.44;25.63;100020.31;4991987;28;795;-56
2022/04/13 12:50:58;;;;;;;;;;;;;;;17.90;26.88;100016.50;4992790;28;803;-56
2022/04/13 12:53:25;;;;;;;;;;;;;;;17.59;27.57;100023.81;4992445;28;826;-56
2022/04/13 12:55:54;;;;;;;;;;;;;;;16.95;26.86;100018.84;4975188;28;879;-56
2022/04/13 12:58:21;;;;;;;;;;;;;;;16.38;27.26;100015.53;4992503;28;823;-55
2022/04/13 13:00:52;;;;;;;;;;;;;;;16.02;28.55;100024.75;4992437;28;838;-55
2022/04/13 13:03:19;;;;;;;;;;;;;;;16.11;27.52;100022.19;4992282;28;1886;-56
2022/04/13 13:05:46;;;;;;;;;;;;;;;15.62;29.11;100026.84;4992456;28;882;-55
2022/04/13 13:08:13;;;;;;;;;;;;;;;16.11;28.27;100019.38;4992157;28;927;-55
2022/04/13 13:10:42;;;;;;;;;;;;;;;17.06;28.01;100012.97;4992404;28;854;-56
2022/04/13 13:13:14;;;;;;;;;;;;;;;18.15;26.95;100001.69;4992130;28;955;-56
2022/04/13 13:15:40;;;;;;;;;;;;;;;18.53;26.00;100000.81;4992616;28;819;-56
2022/04/13 13:18:07;;;;;;;;;;;;;;;18.51;26.04;99996.91;4992106;28;854;-56
2022/04/13 13:20:35;;;;;;;;;;;;;;;18.15;25.95;100000.91;4992408;28;883;-56
2022/04/13 13:23:09;;;;;;;;;;;;;;;17.58;25.63;100013.84;4991879;28;1936;-56
2022/04/13 13:25:42;;;;;;;;;;;;;;;17.82;26.27;100005.94;4992041;28;1382;-56
2022/04/13 13:28:09;;;;;;;;;;;;;;;18.18;25.48;100005.63;4974742;28;1694;-56
2022/04/13 13:30:48;;;;;;;;;;;;;;;18.09;27.30;99997.91;4992213;28;882;-56
2022/04/13 13:33:15;;;;;;;;;;;;;;;18.21;26.12;99996.31;4992196;28;1007;-56